Time;durP1;ratioP1;P1;durP2;ratioP2;P2;SDS_P1;SDS_P2;PMS_P1;PMS_P2;Temp;Humidity;BMP_temperature;BMP_pressure;BME280_temperature;BME280_humidity;BME280_pressure;Samples;Min_cycle;Max_cycle;Signal;HPM_P1;HPM_P2
2022/08/02 00:00:34;;;;;;;1.03;0.87;;;;;;;24.32;45.58;96716.03;6277835;22;20196;-75
2022/08/02 00:03:01;;;;;;;0.90;0.90;;;;;;;24.25;46.26;96715.84;6175802;22;20181;-75
2022/08/02 00:05:28;;;;;;;1.00;1.00;;;;;;;24.24;45.94;96715.00;6173758;22;20170;-74
2022/08/02 00:07:55;;;;;;;0.87;0.80;;;;;;;24.06;46.35;96709.03;6277579;22;20682;-74
2022/08/02 00:10:22;;;;;;;0.77;0.77;;;;;;;24.00;46.33;96707.00;6173195;22;20648;-74
2022/08/02 00:12:49;;;;;;;2.10;0.77;;;;;;;24.05;46.29;96722.41;6175130;22;20226;-75
2022/08/02 00:15:18;;;;;;;0.80;0.80;;;;;;;24.08;46.40;96730.84;6277264;22;20483;-75
2022/08/02 00:17:45;;;;;;;1.33;0.80;;;;;;;24.09;46.58;96721.91;6174447;22;20236;-74
2022/08/02 00:20:14;;;;;;;1.00;0.90;;;;;;;24.20;45.67;96726.06;6174936;22;20260;-75
2022/08/02 00:22:41;;;;;;;1.60;1.17;;;;;;;24.08;46.05;96728.22;6173405;22;20163;-75
2022/08/02 00:25:09;;;;;;;1.30;1.20;;;;;;;24.13;46.10;96725.09;6277553;22;20632;-73
2022/08/02 00:27:36;;;;;;;1.20;1.10;;;;;;;24.13;46.46;96725.09;6173391;22;20173;-75
2022/08/02 00:30:03;;;;;;;1.17;1.03;;;;;;;24.12;46.51;96726.06;6278213;22;20208;-74
2022/08/02 00:32:31;;;;;;;2.03;1.20;;;;;;;24.08;46.74;96722.91;6173769;22;20173;-75
2022/08/02 00:34:58;;;;;;;2.40;1.10;;;;;;;24.10;45.79;96718.28;6277641;22;20185;-74
2022/08/02 00:37:25;;;;;;;2.10;1.00;;;;;;;24.13;46.40;96723.25;6174667;23;20590;-75
2022/08/02 00:39:56;;;;;;;1.00;1.00;;;;;;;24.14;46.66;96724.91;6173808;22;20174;-74
2022/08/02 00:42:23;;;;;;;1.23;1.07;;;;;;;24.13;46.33;96714.50;6174719;22;20169;-74
2022/08/02 00:44:50;;;;;;;1.13;1.03;;;;;;;24.16;45.92;96717.66;6173087;22;20278;-74
2022/08/02 00:47:17;;;;;;;1.43;0.90;;;;;;;24.02;46.20;96717.41;6174899;22;20173;-74
2022/08/02 00:49:46;;;;;;;1.07;0.90;;;;;;;23.99;46.46;96718.53;6173451;22;20202;-75
2022/08/02 00:52:13;;;;;;;0.90;0.90;;;;;;;23.96;47.10;96716.25;6174417;22;20167;-74
2022/08/02 00:54:41;;;;;;;1.20;1.10;;;;;;;23.92;46.80;96714.91;6277633;22;20206;-75
2022/08/02 00:57:08;;;;;;;1.00;1.00;;;;;;;23.90;47.00;96706.28;6173253;23;20171;-74
2022/08/02 00:59:35;;;;;;;1.17;1.07;;;;;;;24.03;46.52;96719.91;6174466;22;20599;-73
2022/08/02 01:02:02;;;;;;;1.77;1.07;;;;;;;23.84;47.06;96709.59;6173322;23;20221;-73
2022/08/02 01:04:29;;;;;;;1.40;1.10;;;;;;;23.93;47.19;96718.34;6174680;22;20172;-74
2022/08/02 01:06:59;;;;;;;1.00;0.90;;;;;;;23.97;46.66;96711.75;6172984;22;20169;-73
2022/08/02 01:09:27;;;;;;;1.20;1.10;;;;;;;23.96;46.82;96710.09;6174219;22;20287;-73
2022/08/02 01:11:54;;;;;;;1.53;1.23;;;;;;;23.94;46.82;96707.63;6173841;22;20597;-73
2022/08/02 01:14:23;;;;;;;1.20;1.10;;;;;;;23.95;47.23;96705.78;6173126;22;20588;-74
2022/08/02 01:17:11;;;;;;;1.70;0.90;;;;;;;23.96;47.29;96703.00;6174506;22;20575;-73
2022/08/02 01:19:56;;;;;;;1.07;0.97;;;;;;;24.00;46.96;96712.28;6173402;22;20227;-73
2022/08/02 01:22:51;;;;;;;0.90;0.83;;;;;;;23.95;46.80;96717.22;6175838;22;20176;-73
2022/08/02 01:26:01;;;;;;;1.17;1.00;;;;;;;23.99;46.92;96705.31;6176227;22;20168;-73
2022/08/02 01:28:37;;;;;;;1.10;1.00;;;;;;;23.99;46.79;96715.91;6174176;22;20168;-75
2022/08/02 01:31:27;;;;;;;2.50;1.27;;;;;;;23.92;47.08;96720.19;6175853;22;20167;-73
2022/08/02 01:34:00;;;;;;;1.20;1.10;;;;;;;24.01;46.81;96713.91;6176190;22;20165;-76
2022/08/02 01:36:31;;;;;;;1.00;0.90;;;;;;;24.03;46.84;96722.56;6174215;22;20211;-75
2022/08/02 01:39:00;;;;;;;1.43;1.00;;;;;;;23.94;46.79;96718.22;6176087;22;20181;-73
2022/08/02 01:41:29;;;;;;;0.90;0.90;;;;;;;23.99;46.80;96707.97;6278284;22;20177;-74
2022/08/02 01:43:59;;;;;;;0.90;0.90;;;;;;;24.04;46.75;96721.59;6280253;22;20861;-74
2022/08/02 01:46:29;;;;;;;0.90;0.80;;;;;;;23.90;47.31;96716.88;6279152;22;20695;-74
2022/08/02 01:49:00;;;;;;;1.67;1.10;;;;;;;23.93;47.24;96711.25;6278726;22;20197;-75
2022/08/02 01:54:16;;;;;;;2.20;1.33;;;;;;;23.90;47.53;96716.88;6173950;22;20195;-73
2022/08/02 01:56:44;;;;;;;2.30;1.27;;;;;;;23.76;48.01;96704.22;6175808;22;20163;-73
2022/08/02 01:59:15;;;;;;;1.40;1.30;;;;;;;23.75;48.59;96717.63;6174997;22;20537;-75
2022/08/02 02:01:44;;;;;;;1.97;1.50;;;;;;;23.78;48.48;96712.84;6277767;22;20218;-73
2022/08/02 02:04:14;;;;;;;1.33;1.13;;;;;;;23.75;48.86;96717.63;6175846;22;20608;-73
2022/08/02 02:06:43;;;;;;;1.53;1.20;;;;;;;23.69;48.97;96713.81;6173903;22;20165;-73
2022/08/02 02:09:13;;;;;;;1.27;1.17;;;;;;;23.53;49.24;96710.25;6175288;22;20203;-73
2022/08/02 02:11:45;;;;;;;1.97;1.10;;;;;;;23.59;49.21;96706.97;6174233;22;20167;-73
2022/08/02 02:14:34;;;;;;;1.20;1.10;;;;;;;23.57;49.19;96707.16;6175171;23;20635;-73
2022/08/02 02:17:02;;;;;;;2.50;1.27;;;;;;;23.56;49.57;96704.63;6175994;22;20641;-74
2022/08/02 02:19:32;;;;;;;1.70;1.40;;;;;;;23.56;49.00;96707.28;6303589;22;20166;-73
2022/08/02 02:21:59;;;;;;;1.80;1.40;;;;;;;23.45;48.97;96703.94;6175592;23;20225;-73
2022/08/02 02:24:28;;;;;;;1.23;1.13;;;;;;;23.45;49.25;96695.19;6174101;22;20175;-73
2022/08/02 02:26:58;;;;;;;1.43;1.33;;;;;;;23.30;49.42;96686.16;6277876;22;20191;-72
2022/08/02 02:29:28;;;;;;;2.90;1.20;;;;;;;23.23;49.72;96701.81;6174237;22;20202;-73
2022/08/02 02:31:59;;;;;;;2.20;1.50;;;;;;;23.28;49.75;96698.69;6278248;22;20232;-73
2022/08/02 02:34:31;;;;;;;1.87;1.37;;;;;;;23.33;50.05;96702.56;6278856;22;20167;-74
2022/08/02 02:37:03;;;;;;;3.87;1.73;;;;;;;23.34;49.87;96698.94;6174030;22;20688;-73
2022/08/02 02:39:32;;;;;;;3.70;1.40;;;;;;;23.37;49.77;96697.78;6175989;22;20162;-73
2022/08/02 02:42:02;;;;;;;3.20;1.40;;;;;;;23.34;49.46;96706.03;6174303;22;20232;-73
2022/08/02 02:44:30;;;;;;;1.20;1.10;;;;;;;23.38;49.33;96695.00;6175772;22;20164;-73
2022/08/02 02:46:59;;;;;;;7.50;1.60;;;;;;;23.29;49.80;96695.06;6175008;22;20174;-74
2022/08/02 02:49:29;;;;;;;2.73;1.30;;;;;;;23.34;49.89;96693.66;6174764;22;20199;-73
2022/08/02 02:51:57;;;;;;;5.00;1.60;;;;;;;23.52;48.97;96703.31;6175509;22;20240;-73
2022/08/02 02:54:25;;;;;;;1.50;1.23;;;;;;;23.45;49.39;96679.34;6173867;22;20205;-74
2022/08/02 02:57:03;;;;;;;1.47;1.37;;;;;;;23.61;48.82;96700.56;6176172;22;20165;-73
2022/08/02 02:59:32;;;;;;;1.97;1.47;;;;;;;23.51;49.35;96702.50;6174838;22;20174;-73
2022/08/02 03:02:01;;;;;;;5.13;1.70;;;;;;;23.31;49.79;96703.66;6279546;22;20165;-73
2022/08/02 03:04:30;;;;;;;2.17;1.80;;;;;;;22.95;50.11;96700.31;6279410;22;20203;-74
2022/08/02 03:07:17;;;;;;;7.13;1.77;;;;;;;22.88;51.11;96711.63;6185324;22;20167;-75
2022/08/02 03:09:44;;;;;;;7.27;4.50;;;;;;;22.79;51.03;96712.56;6189228;22;20815;-75
2022/08/02 03:12:22;;;;;;;5.17;2.10;;;;;;;22.77;51.64;96714.53;6191015;22;20172;-74
2022/08/02 03:15:00;;;;;;;6.63;1.90;;;;;;;22.60;51.26;96714.38;6185348;22;20235;-74
2022/08/02 03:17:40;;;;;;;3.97;1.93;;;;;;;22.74;51.04;96712.16;6177568;22;20166;-74
2022/08/02 03:20:13;;;;;;;2.23;1.40;;;;;;;22.76;51.41;96720.78;6176329;22;20196;-74
2022/08/02 03:22:40;;;;;;;2.50;1.57;;;;;;;22.91;50.79;96725.38;6177474;22;20575;-73
2022/08/02 03:25:09;;;;;;;4.30;2.07;;;;;;;22.84;51.61;96726.94;6275747;22;20186;-74
2022/08/02 03:27:37;;;;;;;7.40;2.87;;;;;;;22.93;51.27;96736.59;6178632;22;20659;-74
2022/08/02 03:30:06;;;;;;;8.33;2.60;;;;;;;22.90;51.37;96736.06;6175401;23;20197;-73
2022/08/02 03:32:36;;;;;;;4.53;2.13;;;;;;;22.98;51.11;96738.78;6175180;22;20170;-73
2022/08/02 03:35:05;;;;;;;4.80;1.83;;;;;;;22.97;51.08;96745.03;6175112;22;20224;-74
2022/08/02 03:37:32;;;;;;;3.73;1.87;;;;;;;;;;6173809;22;20167;-74
2022/08/02 03:40:00;;;;;;;2.87;1.53;;;;;;;23.33;51.06;96754.56;6175567;22;20723;-74
2022/08/02 03:42:30;;;;;;;3.30;1.67;;;;;;;23.77;48.83;96753.50;6173915;22;20170;-72
2022/08/02 03:44:59;;;;;;;3.77;1.60;;;;;;;23.95;49.00;96766.63;6175362;22;20175;-74
2022/08/02 03:47:32;;;;;;;5.30;2.10;;;;;;;23.67;49.45;96768.66;6272218;22;20163;-74
2022/08/02 03:50:00;;;;;;;5.60;2.43;;;;;;;23.64;49.85;96763.69;6174591;22;20201;-73
2022/08/02 03:52:31;;;;;;;5.23;2.00;;;;;;;23.88;49.13;96763.81;6174627;22;20518;-74
2022/08/02 03:54:58;;;;;;;5.43;1.90;;;;;;;24.49;47.53;96773.28;6172867;22;20201;-73
2022/08/02 03:57:26;;;;;;;7.23;2.00;;;;;;;24.94;46.30;96776.38;6303864;22;20227;-73
2022/08/02 03:59:53;;;;;;;5.13;2.93;;;;;;;25.38;45.63;96779.50;6172939;22;20199;-74
2022/08/02 04:02:19;;;;;;;5.57;2.10;;;;;;;25.46;45.96;96780.34;6175269;22;20194;-73
2022/08/02 04:04:47;;;;;;;4.23;1.90;;;;;;;25.78;45.08;96782.94;6277011;22;20545;-73
2022/08/02 04:07:14;;;;;;;6.47;2.87;;;;;;;25.88;43.66;96779.25;6277046;22;20594;-73
2022/08/02 04:10:01;;;;;;;3.83;2.23;;;;;;;25.97;44.21;96781.72;6175247;22;20222;-73
2022/08/02 04:12:29;;;;;;;3.97;1.60;;;;;;;26.02;43.37;96781.19;6173396;22;20164;-73
2022/08/02 04:14:57;;;;;;;3.23;1.93;;;;;;;26.40;43.16;96793.66;6176601;22;20173;-74
2022/08/02 04:17:26;;;;;;;5.23;2.40;;;;;;;26.37;42.35;96788.72;6173461;22;20219;-74
2022/08/02 04:20:00;;;;;;;5.87;2.67;;;;;;;25.84;44.09;96782.25;6174742;22;20163;-72
2022/08/02 04:22:36;;;;;;;3.97;3.03;;;;;;;25.50;44.93;96788.78;6174461;22;20166;-73
2022/08/02 04:25:05;;;;;;;2.93;1.83;;;;;;;24.88;45.56;96779.69;6173416;22;20178;-74
2022/08/02 04:27:37;;;;;;;4.50;2.60;;;;;;;24.54;47.41;96781.59;6277484;22;20174;-74
2022/08/02 04:30:24;;;;;;;11.40;7.17;;;;;;;23.73;50.24;96789.19;6173152;22;20199;-74
2022/08/02 04:32:52;;;;;;;13.07;7.17;;;;;;;23.90;50.25;96785.66;6174933;22;20687;-74
2022/08/02 04:35:19;;;;;;;6.30;5.60;;;;;;;24.00;48.61;96791.66;6277890;22;20514;-74
2022/08/02 04:37:47;;;;;;;13.40;4.37;;;;;;;24.04;48.88;96793.03;6173424;22;20167;-74
2022/08/02 04:40:34;;;;;;;8.07;3.67;;;;;;;23.78;50.65;96784.25;6278362;22;20180;-74
2022/08/02 04:43:01;;;;;;;12.50;4.50;;;;;;;23.86;49.97;96794.91;6173695;22;20173;-74
2022/08/02 04:45:29;;;;;;;7.73;4.07;;;;;;;24.45;48.05;96790.50;6174450;22;20177;-74
2022/08/02 04:47:56;;;;;;;13.77;3.90;;;;;;;24.96;47.57;96795.56;6173666;22;20220;-74
2022/08/02 04:50:32;;;;;;;13.10;4.10;;;;;;;25.71;45.72;96787.28;6173555;22;20292;-75
2022/08/02 04:53:00;;;;;;;12.67;4.70;;;;;;;26.02;44.84;96791.81;6174998;22;20216;-75
2022/08/02 04:55:28;;;;;;;6.10;2.83;;;;;;;25.92;43.92;96797.34;6173670;22;20549;-74
2022/08/02 04:57:57;;;;;;;7.57;2.53;;;;;;;25.85;45.13;96806.97;6176510;22;20174;-75
2022/08/02 05:00:26;;;;;;;9.37;3.47;;;;;;;26.12;44.38;96801.28;6304318;22;20228;-75
2022/08/02 05:02:56;;;;;;;7.70;3.03;;;;;;;25.94;45.10;96802.47;6175812;22;20607;-74
2022/08/02 05:05:23;;;;;;;12.17;3.23;;;;;;;26.22;44.33;96806.38;6174846;22;20617;-74
2022/08/02 05:07:51;;;;;;;7.13;3.80;;;;;;;26.77;43.88;96809.75;6174868;22;20614;-74
2022/08/02 05:10:19;;;;;;;16.97;3.43;;;;;;;27.08;42.30;96807.06;6175881;22;20195;-74
2022/08/02 05:12:48;;;;;;;5.77;3.27;;;;;;;27.26;41.67;96818.22;6174180;22;20619;-74
2022/08/02 05:15:18;;;;;;;4.73;4.20;;;;;;;26.98;42.54;96809.94;6280638;22;20175;-74
2022/08/02 05:17:47;;;;;;;4.73;3.50;;;;;;;27.16;42.48;96814.97;6174005;23;20246;-74
2022/08/02 05:20:17;;;;;;;8.43;4.57;;;;;;;27.33;41.56;96813.81;6254123;22;20170;-75
2022/08/02 05:22:44;;;;;;;7.60;4.97;;;;;;;27.48;41.53;96811.25;6278164;22;20173;-74
2022/08/02 05:25:11;;;;;;;8.10;4.50;;;;;;;27.21;42.52;96809.94;6174785;22;20167;-74
2022/08/02 05:27:38;;;;;;;6.90;3.73;;;;;;;27.37;41.51;96805.34;6176206;22;20681;-74
2022/08/02 05:30:06;;;;;;;3.73;2.50;;;;;;;27.66;40.63;96803.75;6173476;22;20251;-74
2022/08/02 05:32:33;;;;;;;5.13;3.80;;;;;;;27.57;40.37;96810.16;6175965;22;20167;-74
2022/08/02 05:35:01;;;;;;;6.17;2.77;;;;;;;27.12;41.33;96826.97;6174094;22;20163;-74
2022/08/02 05:37:30;;;;;;;3.57;2.87;;;;;;;26.94;41.82;96819.28;6279303;22;20693;-74
2022/08/02 05:40:01;;;;;;;4.33;2.57;;;;;;;26.91;42.01;96817.00;6174849;22;20167;-74
2022/08/02 05:42:32;;;;;;;5.73;2.50;;;;;;;26.78;42.07;96824.72;6174806;22;20249;-74
2022/08/02 05:44:59;;;;;;;4.33;2.90;;;;;;;27.37;40.55;96821.31;6175371;22;20186;-75
2022/08/02 05:47:29;;;;;;;3.13;1.80;;;;;;;26.92;41.22;96825.78;6173596;22;20224;-74
2022/08/02 05:49:56;;;;;;;2.93;1.47;;;;;;;27.02;41.63;96832.53;6278634;22;20186;-74
2022/08/02 05:52:27;;;;;;;2.57;1.70;;;;;;;27.16;42.07;96834.41;6174325;22;20220;-73
2022/08/02 05:55:06;;;;;;;4.10;2.13;;;;;;;27.87;40.42;96827.81;6175008;22;20202;-74
2022/08/02 05:57:56;;;;;;;4.00;1.53;;;;;;;28.18;40.09;96834.66;6175242;22;20182;-75
2022/08/02 06:00:29;;;;;;;9.07;2.73;;;;;;;28.48;39.19;96826.66;6174414;22;20488;-74
2022/08/02 06:03:37;;;;;;;2.20;1.63;;;;;;;28.58;38.87;96832.53;6175638;22;20167;-74
2022/08/02 06:06:12;;;;;;;4.70;1.63;;;;;;;28.79;39.04;96830.72;6175389;22;20629;-74
2022/08/02 06:08:45;;;;;;;2.53;1.63;;;;;;;28.77;38.76;96834.63;6174409;22;20170;-74
2022/08/02 06:11:26;;;;;;;4.80;1.83;;;;;;;28.60;39.47;96839.34;6266501;22;20533;-74
2022/08/02 06:13:53;;;;;;;10.57;2.73;;;;;;;28.62;39.27;96840.00;6277836;22;20170;-75
2022/08/02 06:16:25;;;;;;;9.97;2.67;;;;;;;28.76;38.59;96838.28;6175422;22;20619;-75
2022/08/02 06:18:59;;;;;;;3.83;1.97;;;;;;;28.69;38.49;96846.22;6174492;22;20173;-74
2022/08/02 06:21:27;;;;;;;3.23;1.10;;;;;;;28.45;38.75;96841.16;6174278;22;20175;-74
2022/08/02 06:24:17;;;;;;;3.63;2.23;;;;;;;28.22;39.15;96836.94;6261035;22;20167;-74
2022/08/02 06:26:51;;;;;;;2.10;1.83;;;;;;;28.26;39.31;96839.06;6173274;22;20232;-74
2022/08/02 06:29:20;;;;;;;4.00;1.93;;;;;;;28.32;39.37;96835.66;6278888;22;20185;-75
2022/08/02 06:31:52;;;;;;;2.73;1.57;;;;;;;27.96;41.17;96848.06;6275859;22;20201;-74
2022/08/02 06:34:19;;;;;;;2.33;1.70;;;;;;;27.87;39.56;96846.44;6174544;22;20244;-74
2022/08/02 06:37:05;;;;;;;2.47;1.30;;;;;;;27.71;39.88;96843.97;6175212;22;20509;-75
2022/08/02 06:39:47;;;;;;;4.53;2.43;;;;;;;27.09;40.79;96837.97;6173200;22;20166;-74
2022/08/02 06:42:20;;;;;;;1.50;0.90;;;;;;;26.39;42.46;96845.13;6175091;22;20162;-75
2022/08/02 06:44:54;;;;;;;2.93;1.60;;;;;;;26.56;42.42;96844.06;6277680;22;20541;-74
2022/08/02 06:47:25;;;;;;;1.40;1.00;;;;;;;27.20;41.30;96842.88;6173775;22;20174;-75
2022/08/02 06:49:52;;;;;;;0.97;0.83;;;;;;;27.39;40.94;96855.69;6174586;22;20250;-74
2022/08/02 06:52:26;;;;;;;1.67;1.27;;;;;;;27.33;41.03;96841.25;6173945;22;20185;-75
2022/08/02 06:55:00;;;;;;;1.17;1.07;;;;;;;27.37;41.11;96853.22;6277853;22;20236;-75
2022/08/02 06:57:30;;;;;;;1.33;1.23;;;;;;;26.82;41.92;96844.63;6275400;22;20163;-75
2022/08/02 07:00:01;;;;;;;1.93;1.30;;;;;;;27.04;41.77;96846.47;6278629;22;20178;-75
2022/08/02 07:02:30;;;;;;;1.53;1.30;;;;;;;27.08;41.07;96838.97;6174338;22;20173;-74
2022/08/02 07:04:58;;;;;;;1.50;1.30;;;;;;;27.11;41.37;96844.75;6173167;22;20219;-75
2022/08/02 07:07:26;;;;;;;2.83;2.00;;;;;;;27.15;41.45;96842.56;6174699;22;20163;-74
2022/08/02 07:09:54;;;;;;;1.27;1.17;;;;;;;27.09;41.54;96851.25;6173075;22;20167;-74
2022/08/02 07:12:32;;;;;;;6.07;1.47;;;;;;;27.14;41.64;96835.59;6275421;22;20223;-75
2022/08/02 07:15:01;;;;;;;1.20;1.10;;;;;;;27.22;41.47;96846.19;6174037;22;20237;-75
2022/08/02 07:17:31;;;;;;;1.83;1.40;;;;;;;27.12;41.28;96845.59;6275574;22;20660;-73
2022/08/02 07:19:59;;;;;;;1.93;1.40;;;;;;;27.18;40.65;96840.38;6174597;22;20625;-74
2022/08/02 07:22:29;;;;;;;10.33;2.27;;;;;;;27.84;40.60;96841.50;6173353;22;20163;-74
2022/08/02 07:24:58;;;;;;;3.47;1.57;;;;;;;28.34;39.16;96836.31;6174792;22;20236;-73
2022/08/02 07:27:26;;;;;;;2.27;0.80;;;;;;;28.05;39.28;96846.94;6172965;22;20245;-74
2022/08/02 07:29:54;;;;;;;1.30;1.20;;;;;;;27.93;40.02;96840.41;6174642;22;20163;-74
2022/08/02 07:32:25;;;;;;;2.07;1.20;;;;;;;28.26;39.29;96833.72;6274175;22;20285;-74
2022/08/02 07:34:53;;;;;;;1.83;1.30;;;;;;;28.05;40.00;96838.97;6277116;22;20179;-74
2022/08/02 07:37:24;;;;;;;4.53;2.23;;;;;;;28.43;39.71;96837.88;6174871;22;20188;-74
2022/08/02 07:40:12;;;;;;;1.90;1.30;;;;;;;28.05;39.66;96842.47;6172661;22;20638;-74
2022/08/02 07:42:46;;;;;;;1.20;1.10;;;;;;;28.33;39.25;96836.50;6174714;22;20282;-74
2022/08/02 07:45:13;;;;;;;2.30;1.20;;;;;;;28.61;39.11;96833.00;6173218;22;20606;-74
2022/08/02 07:47:42;;;;;;;2.97;1.50;;;;;;;29.03;38.25;96826.06;6174216;22;20220;-74
2022/08/02 07:50:11;;;;;;;1.10;1.00;;;;;;;29.22;37.78;96844.16;6174382;22;20167;-74
2022/08/02 07:52:39;;;;;;;0.90;0.90;;;;;;;28.50;39.14;96840.63;6172498;22;20482;-74
2022/08/02 07:55:08;;;;;;;3.50;2.50;;;;;;;28.39;39.97;96839.25;6276359;22;20278;-74
2022/08/02 07:57:36;;;;;;;2.87;1.53;;;;;;;28.62;39.05;96839.16;6172866;22;20652;-74
2022/08/02 08:00:10;;;;;;;5.10;1.90;;;;;;;28.33;39.53;96823.16;6277680;22;20196;-74
2022/08/02 08:02:38;;;;;;;2.97;1.40;;;;;;;28.26;39.80;96833.72;6250340;22;20243;-74
2022/08/02 08:05:06;;;;;;;1.30;1.10;;;;;;;28.24;39.89;96841.09;6277275;22;20561;-74
2022/08/02 08:07:33;;;;;;;2.73;1.30;;;;;;;28.06;40.22;96843.28;6174722;22;20172;-74
2022/08/02 08:10:01;;;;;;;2.47;1.50;;;;;;;27.68;40.22;96833.66;6275313;22;20171;-74
2022/08/02 08:12:29;;;;;;;2.27;1.60;;;;;;;27.84;40.46;96833.53;6277198;22;20198;-75
2022/08/02 08:14:56;;;;;;;3.30;1.23;;;;;;;28.03;40.06;96848.97;6172202;22;20192;-74
2022/08/02 08:17:23;;;;;;;1.63;1.20;;;;;;;27.91;39.34;96848.56;6173756;22;20171;-74
2022/08/02 08:19:51;;;;;;;1.43;1.23;;;;;;;27.87;39.35;96844.63;6172782;22;20163;-75
2022/08/02 08:22:19;;;;;;;1.37;1.27;;;;;;;28.26;38.42;96848.88;6303168;22;20174;-75
2022/08/02 08:24:47;;;;;;;2.30;1.60;;;;;;;28.54;37.83;96848.03;6173603;22;20268;-74
2022/08/02 08:27:16;;;;;;;1.27;1.00;;;;;;;28.25;38.28;96850.75;6172187;22;20169;-74
2022/08/02 08:29:44;;;;;;;7.07;5.80;;;;;;;28.51;38.32;96852.91;6173775;22;20166;-73
2022/08/02 08:32:12;;;;;;;2.40;1.80;;;;;;;28.68;38.83;96844.56;6276609;22;20369;-73
2022/08/02 08:34:44;;;;;;;2.00;1.80;;;;;;;28.82;38.70;96854.38;6174958;22;20258;-73
2022/08/02 08:37:11;;;;;;;2.80;1.60;;;;;;;28.60;38.79;96852.69;6173867;22;20167;-74
2022/08/02 08:39:45;;;;;;;1.90;1.20;;;;;;;28.46;38.64;96842.81;6173850;22;20167;-75
2022/08/02 08:42:29;;;;;;;2.97;1.40;;;;;;;28.46;37.73;96845.47;6174824;22;20254;-74
2022/08/02 08:44:58;;;;;;;2.97;1.23;;;;;;;28.07;38.50;96847.59;6173420;22;20595;-73
2022/08/02 08:47:40;;;;;;;1.50;1.40;;;;;;;27.95;39.32;96847.19;6175295;22;20225;-74
2022/08/02 08:50:10;;;;;;;1.37;1.27;;;;;;;28.19;40.14;96838.97;6252071;22;20183;-74
2022/08/02 08:53:08;;;;;;;5.33;2.07;;;;;;;28.41;39.46;96847.88;6303833;22;20247;-74
2022/08/02 08:55:39;;;;;;;2.40;1.50;;;;;;;27.81;39.51;96847.19;6174592;22;20224;-74
2022/08/02 08:58:06;;;;;;;3.17;1.33;;;;;;;27.53;40.74;96838.16;6173123;22;20170;-74
2022/08/02 09:00:35;;;;;;;2.07;1.30;;;;;;;27.55;41.21;96849.44;6279372;22;20179;-74
2022/08/02 09:03:07;;;;;;;2.20;1.20;;;;;;;27.37;41.21;96841.75;6276383;22;20163;-74
2022/08/02 09:05:35;;;;;;;2.07;1.20;;;;;;;27.41;41.91;96851.03;6174764;22;20626;-74
2022/08/02 09:08:04;;;;;;;3.63;1.40;;;;;;;27.51;41.91;96848.97;6278745;22;20186;-74
2022/08/02 09:10:43;;;;;;;9.90;5.40;;;;;;;27.81;40.75;96840.03;6172481;22;20251;-74
2022/08/02 09:13:10;;;;;;;2.47;1.63;;;;;;;28.24;39.94;96846.41;6303994;22;20189;-73
2022/08/02 09:16:02;;;;;;;1.97;1.33;;;;;;;28.04;40.17;96845.31;6276935;22;20572;-74
2022/08/02 09:18:43;;;;;;;1.90;1.63;;;;;;;28.15;40.05;96834.22;6174352;22;20190;-74
2022/08/02 09:21:13;;;;;;;1.30;1.20;;;;;;;28.22;39.32;96832.44;6276739;22;20502;-74
2022/08/02 09:23:45;;;;;;;3.20;1.40;;;;;;;28.30;38.85;96829.69;6172928;22;20163;-74
2022/08/02 09:26:15;;;;;;;2.30;1.40;;;;;;;28.09;39.31;96837.59;6305021;22;20745;-74
2022/08/02 09:28:47;;;;;;;1.50;1.40;;;;;;;27.96;39.51;96837.41;6173389;22;20167;-74
2022/08/02 09:31:17;;;;;;;4.37;2.40;;;;;;;28.07;39.77;96839.59;6174831;22;20190;-74
2022/08/02 09:33:49;;;;;;;1.67;1.27;;;;;;;28.24;38.72;96835.75;6174221;22;20200;-74
2022/08/02 09:36:16;;;;;;;3.20;1.20;;;;;;;28.23;38.65;96834.13;6173748;22;20241;-74
2022/08/02 09:39:01;;;;;;;1.60;1.50;;;;;;;28.30;39.14;96829.69;6174942;22;20246;-74
2022/08/02 09:41:32;;;;;;;1.53;1.40;;;;;;;28.29;39.25;96820.06;6276462;22;20188;-74
2022/08/02 09:44:02;;;;;;;2.63;1.43;;;;;;;28.46;38.47;96829.47;6277169;22;20163;-74
2022/08/02 09:46:53;;;;;;;2.33;1.70;;;;;;;28.58;38.53;96828.03;6174309;22;20242;-74
2022/08/02 09:49:20;;;;;;;1.37;1.20;;;;;;;28.31;38.67;96834.03;6173504;22;20561;-74
2022/08/02 09:51:50;;;;;;;1.27;1.17;;;;;;;28.49;39.78;96838.94;6174512;22;20243;-74
2022/08/02 09:54:24;;;;;;;3.07;1.80;;;;;;;29.01;38.03;96828.94;6276491;22;20209;-74
2022/08/02 09:56:53;;;;;;;1.37;1.27;;;;;;;29.19;36.77;96825.84;6175589;22;20248;-74
2022/08/02 09:59:25;;;;;;;1.83;1.30;;;;;;;29.13;37.10;96826.56;6173458;22;20264;-74
2022/08/02 10:01:54;;;;;;;1.70;1.60;;;;;;;28.97;37.17;96796.47;6174846;22;20166;-74
2022/08/02 10:04:30;;;;;;;1.60;1.40;;;;;;;28.95;37.76;96822.50;6174584;22;20188;-74
2022/08/02 10:07:02;;;;;;;1.73;1.63;;;;;;;29.01;37.21;96825.44;6173172;22;20170;-75
2022/08/02 10:09:31;;;;;;;1.40;1.30;;;;;;;28.43;37.97;96823.69;6174953;22;20186;-74
2022/08/02 10:11:59;;;;;;;2.20;2.00;;;;;;;28.30;38.41;96818.19;6276266;22;20199;-74
2022/08/02 10:14:26;;;;;;;3.27;2.17;;;;;;;28.68;37.44;96815.25;6174547;22;20170;-73
2022/08/02 10:16:56;;;;;;;2.97;2.27;;;;;;;28.66;37.92;96819.94;6173331;22;20508;-74
2022/08/02 10:19:23;;;;;;;3.87;1.40;;;;;;;28.65;37.49;96826.28;6173889;22;20619;-75
2022/08/02 10:22:12;;;;;;;2.70;1.27;;;;;;;28.40;37.37;96838.22;6174984;22;20190;-74
2022/08/02 10:24:41;;;;;;;2.70;1.50;;;;;;;28.39;37.58;96825.94;6173197;22;20246;-74
2022/08/02 10:27:19;;;;;;;1.77;1.47;;;;;;;28.51;37.75;96832.44;6174590;22;20204;-74
2022/08/02 10:29:49;;;;;;;5.53;3.60;;;;;;;28.85;37.00;96816.66;6174029;22;20586;-75
2022/08/02 10:32:35;;;;;;;3.00;1.40;;;;;;;28.75;37.30;96805.47;6174381;22;20228;-75
2022/08/02 10:35:08;;;;;;;1.97;1.77;;;;;;;29.30;36.16;96806.66;6175570;22;20171;-75
2022/08/02 10:37:59;;;;;;;2.70;2.10;;;;;;;29.64;35.42;96814.72;6173550;22;20228;-74
2022/08/02 10:40:47;;;;;;;1.77;1.47;;;;;;;29.42;35.74;96807.78;6174937;22;20162;-74
2022/08/02 10:43:35;;;;;;;1.77;1.50;;;;;;;29.41;35.47;96803.44;6175457;22;20292;-75
2022/08/02 10:46:24;;;;;;;1.40;1.30;;;;;;;29.57;35.82;96805.88;6276555;22;20202;-74
2022/08/02 10:49:07;;;;;;;4.87;1.67;;;;;;;29.80;35.38;96814.47;6277803;22;20174;-74
2022/08/02 10:52:04;;;;;;;2.07;1.43;;;;;;;29.94;35.01;96804.72;6173979;22;20198;-74
2022/08/02 10:54:34;;;;;;;3.07;1.40;;;;;;;30.02;34.87;96797.38;6173460;22;20818;-75
2022/08/02 10:57:12;;;;;;;1.43;1.30;;;;;;;30.03;34.58;96804.34;6278072;22;20205;-75
2022/08/02 10:59:42;;;;;;;2.07;1.43;;;;;;;29.76;34.91;96805.19;6173952;22;20589;-75
2022/08/02 11:02:10;;;;;;;1.63;1.53;;;;;;;29.18;35.59;96803.66;6278227;22;20182;-75
2022/08/02 11:04:38;;;;;;;1.37;1.27;;;;;;;29.04;35.85;96817.06;6174105;22;20254;-75
2022/08/02 11:07:20;;;;;;;1.50;1.40;;;;;;;28.98;35.61;96807.97;6173374;22;20163;-75
2022/08/02 11:09:48;;;;;;;1.30;1.20;;;;;;;28.90;36.12;96800.91;6175212;22;20166;-75
2022/08/02 11:12:18;;;;;;;1.87;1.67;;;;;;;29.18;35.36;96794.88;6172777;22;20217;-74
2022/08/02 11:14:59;;;;;;;2.23;1.43;;;;;;;29.27;35.82;96791.03;6174691;22;20224;-75
2022/08/02 11:17:29;;;;;;;1.60;1.50;;;;;;;29.54;36.09;96793.72;6276747;22;20281;-75
2022/08/02 11:20:09;;;;;;;1.60;1.50;;;;;;;29.65;34.75;96798.53;6173282;22;20171;-75
2022/08/02 11:22:42;;;;;;;1.77;1.40;;;;;;;29.39;35.28;96794.81;6277825;22;20192;-75
2022/08/02 11:25:24;;;;;;;1.93;1.50;;;;;;;28.99;36.60;96809.63;6173110;22;20216;-75
2022/08/02 11:27:51;;;;;;;8.40;1.73;;;;;;;28.68;38.14;96798.41;6277895;22;20170;-74
2022/08/02 11:30:20;;;;;;;3.97;1.83;;;;;;;28.55;38.30;96790.22;6173357;22;20166;-74
2022/08/02 11:32:57;;;;;;;1.77;1.60;;;;;;;28.47;37.72;96788.50;6173826;22;20205;-74
2022/08/02 11:35:38;;;;;;;6.90;3.63;;;;;;;28.55;37.22;96795.56;6278041;22;20178;-75
2022/08/02 11:38:17;;;;;;;3.80;1.70;;;;;;;28.43;37.23;96792.56;6172344;22;20163;-74
2022/08/02 11:40:46;;;;;;;1.37;1.10;;;;;;;28.13;38.42;96796.28;6276986;22;20263;-75
2022/08/02 11:43:18;;;;;;;3.27;2.47;;;;;;;28.18;38.29;96793.88;6275628;22;20227;-75
2022/08/02 11:45:45;;;;;;;2.67;1.40;;;;;;;28.27;38.31;96789.28;6277202;22;20179;-74
2022/08/02 11:48:12;;;;;;;1.47;1.20;;;;;;;28.57;38.80;96789.06;6276983;22;20173;-75
2022/08/02 11:50:39;;;;;;;1.57;1.47;;;;;;;28.51;38.64;96789.78;6172276;22;20167;-73
2022/08/02 11:53:15;;;;;;;2.57;1.50;;;;;;;28.48;38.92;96795.47;6173773;22;20195;-73
2022/08/02 11:55:42;;;;;;;1.50;1.37;;;;;;;28.57;38.57;96790.91;6172234;22;20247;-73
2022/08/02 11:58:10;;;;;;;1.77;1.10;;;;;;;28.72;37.01;96783.69;6303520;22;20167;-73